Time;durP1;ratioP1;P1;durP2;ratioP2;P2;SDS_P1;SDS_P2;PMS_P1;PMS_P2;Temp;Humidity;BMP_temperature;BMP_pressure;BME280_temperature;BME280_humidity;BME280_pressure;Samples;Min_cycle;Max_cycle;Signal;HPM_P1;HPM_P2
2021/07/09 00:01:40;;;;;;;21.17;17.20;;;;;;;;;;5073789;28;20808;-51
2021/07/09 00:04:06;;;;;;;20.00;15.83;;;;;;;;;;5072985;28;20419;-50
2021/07/09 00:06:32;;;;;;;21.97;16.93;;;;;;;;;;5073276;28;20396;-51
2021/07/09 00:09:00;;;;;;;19.60;15.40;;;;;;;;;;5073100;28;20379;-51
2021/07/09 00:11:26;;;;;;;19.00;16.40;;;;;;;;;;5073122;28;20780;-50
2021/07/09 00:13:52;;;;;;;21.50;16.17;;;;;;;;;;5072711;28;20375;-50
2021/07/09 00:16:18;;;;;;;20.73;15.60;;;;;;;;;;5072921;28;20411;-50
2021/07/09 00:18:48;;;;;;;20.97;15.87;;;;;;;;;;5072966;28;20915;-51
2021/07/09 00:21:14;;;;;;;20.50;15.93;;;;;;;;;;5073071;28;20894;-51
2021/07/09 00:23:41;;;;;;;20.73;15.27;;;;;;;;;;5072660;28;20475;-50
2021/07/09 00:26:07;;;;;;;23.70;16.20;;;;;;;;;;5072935;28;20868;-51
2021/07/09 00:28:33;;;;;;;17.27;15.37;;;;;;;;;;5072749;28;20411;-50
2021/07/09 00:30:59;;;;;;;19.77;14.73;;;;;;;;;;5072852;28;20821;-51
2021/07/09 00:33:25;;;;;;;21.37;16.87;;;;;;;;;;5073258;28;20487;-50
2021/07/09 00:35:51;;;;;;;26.43;15.77;;;;;;;;;;5072507;28;20519;-50
2021/07/09 00:38:17;;;;;;;24.97;14.63;;;;;;;;;;5071769;28;20421;-51
2021/07/09 00:40:43;;;;;;;22.50;16.40;;;;;;;;;;5072536;28;20373;-50
2021/07/09 00:43:09;;;;;;;18.43;14.83;;;;;;;;;;5072686;28;20783;-51
2021/07/09 00:45:35;;;;;;;20.10;15.53;;;;;;;;;;5072315;28;20381;-51
2021/07/09 00:48:01;;;;;;;19.07;16.57;;;;;;;;;;5072581;28;20424;-51
2021/07/09 00:50:28;;;;;;;19.60;17.07;;;;;;;;;;5072897;28;20488;-51
2021/07/09 00:52:53;;;;;;;22.23;16.03;;;;;;;;;;5072541;28;20864;-50
2021/07/09 00:55:20;;;;;;;20.33;16.43;;;;;;;;;;5072135;28;20410;-51
2021/07/09 00:57:47;;;;;;;22.43;18.10;;;;;;;;;;5072377;28;20406;-49
2021/07/09 01:00:14;;;;;;;18.53;16.50;;;;;;;;;;5072428;28;20381;-51
2021/07/09 01:02:40;;;;;;;28.30;18.73;;;;;;;;;;5072567;28;20915;-50
2021/07/09 01:05:08;;;;;;;23.23;17.50;;;;;;;;;;5072204;28;20413;-50
2021/07/09 01:07:34;;;;;;;24.07;19.60;;;;;;;;;;5072329;28;20508;-51
2021/07/09 01:10:00;;;;;;;28.67;21.40;;;;;;;;;;5072208;28;20412;-51
2021/07/09 01:12:26;;;;;;;36.40;21.97;;;;;;;;;;5072140;28;20767;-51
2021/07/09 01:14:53;;;;;;;34.00;23.20;;;;;;;;;;5071668;28;20375;-50
2021/07/09 01:17:19;;;;;;;27.50;19.73;;;;;;;;;;5072151;28;20437;-51
2021/07/09 01:19:46;;;;;;;28.50;21.00;;;;;;;;;;5071878;28;20380;-51
2021/07/09 01:22:12;;;;;;;32.97;20.63;;;;;;;;;;5071844;28;20407;-50
2021/07/09 01:24:38;;;;;;;27.57;20.50;;;;;;;;;;5071447;28;20373;-50
2021/07/09 01:27:04;;;;;;;28.20;22.50;;;;;;;;;;5072027;28;20814;-50
2021/07/09 01:29:30;;;;;;;30.53;21.40;;;;;;;;;;5071856;28;20458;-51
2021/07/09 01:31:57;;;;;;;28.10;20.90;;;;;;;;;;5071534;28;20908;-51
2021/07/09 01:34:23;;;;;;;29.67;22.00;;;;;;;;;;5071389;28;20849;-50
2021/07/09 01:36:49;;;;;;;24.83;18.60;;;;;;;;;;5071324;28;20950;-50
2021/07/09 01:39:15;;;;;;;31.07;20.30;;;;;;;;;;5071463;28;20825;-51
2021/07/09 01:41:41;;;;;;;27.73;19.50;;;;;;;;;;5071321;28;20413;-50
2021/07/09 01:44:08;;;;;;;25.77;19.23;;;;;;;;;;5071529;28;20387;-51
2021/07/09 01:46:34;;;;;;;28.13;18.30;;;;;;;;;;5071209;28;20808;-50
2021/07/09 01:49:00;;;;;;;24.90;19.70;;;;;;;;;;5071187;28;20413;-51
2021/07/09 01:51:26;;;;;;;25.40;18.03;;;;;;;;;;5070991;28;20449;-50
2021/07/09 01:53:52;;;;;;;31.90;20.47;;;;;;;;;;5070999;28;20484;-50
2021/07/09 01:56:18;;;;;;;28.60;20.67;;;;;;;;;;5070951;28;20510;-50
2021/07/09 01:58:44;;;;;;;23.73;18.80;;;;;;;;;;5071157;28;20384;-52
2021/07/09 02:01:10;;;;;;;30.37;19.70;;;;;;;;;;5071002;28;20381;-50
2021/07/09 02:03:36;;;;;;;31.80;21.17;;;;;;;;;;5070880;28;20375;-51
2021/07/09 02:06:02;;;;;;;28.20;20.13;;;;;;;;;;5071144;28;20403;-51
2021/07/09 02:08:28;;;;;;;39.03;22.63;;;;;;;;;;5071301;28;20391;-51
2021/07/09 02:10:54;;;;;;;35.93;22.80;;;;;;;;;;5070856;28;20469;-50
2021/07/09 02:13:20;;;;;;;23.30;18.80;;;;;;;;;;5070956;28;20373;-51
2021/07/09 02:15:47;;;;;;;37.13;22.33;;;;;;;;;;5070499;28;20477;-50
2021/07/09 02:18:14;;;;;;;28.13;20.37;;;;;;;;;;5070783;28;20435;-51
2021/07/09 02:20:40;;;;;;;35.90;22.30;;;;;;;;;;5070844;28;20488;-51
2021/07/09 02:23:13;;;;;;;36.83;23.57;;;;;;;;;;5070873;28;20406;-51
2021/07/09 02:25:39;;;;;;;36.17;24.17;;;;;;;;;;5070517;28;20368;-51
2021/07/09 02:28:05;;;;;;;37.83;25.13;;;;;;;;;;5070522;28;20406;-51
2021/07/09 02:30:31;;;;;;;39.60;25.40;;;;;;;;;;5070835;28;20387;-51
2021/07/09 02:32:57;;;;;;;42.67;25.03;;;;;;;;;;5070605;28;20890;-50
2021/07/09 02:35:25;;;;;;;41.33;27.50;;;;;;;;;;5070604;28;20404;-51
2021/07/09 02:37:51;;;;;;;40.60;24.70;;;;;;;;;;5070569;28;20433;-51
2021/07/09 02:40:19;;;;;;;45.70;25.17;;;;;;;;;;5070820;28;20407;-51
2021/07/09 02:42:47;;;;;;;42.40;24.30;;;;;;;;;;5070631;28;20397;-50
2021/07/09 02:45:13;;;;;;;37.33;25.60;;;;;;;;;;5070357;28;20461;-51
2021/07/09 02:47:39;;;;;;;44.53;26.50;;;;;;;;;;5070642;28;20398;-50
2021/07/09 02:50:07;;;;;;;53.63;29.37;;;;;;;;;;5070908;28;20386;-51
2021/07/09 02:52:34;;;;;;;46.73;29.40;;;;;;;;;;5070552;28;20452;-50
2021/07/09 02:55:00;;;;;;;41.37;27.10;;;;;;;;;;5070510;28;20780;-51
2021/07/09 02:57:26;;;;;;;44.07;26.70;;;;;;;;;;5070727;28;20900;-51
2021/07/09 02:59:52;;;;;;;45.27;26.30;;;;;;;;;;5070598;28;20789;-50
2021/07/09 03:02:17;;;;;;;44.47;27.57;;;;;;;;;;5073426;28;20475;-50
2021/07/09 03:04:43;;;;;;;46.33;26.20;;;;;;;;;;5074278;28;20380;-52
2021/07/09 03:07:09;;;;;;;38.87;25.30;;;;;;;;;;5074285;28;21015;-51
2021/07/09 03:09:35;;;;;;;42.83;26.27;;;;;;;;;;5074437;28;20475;-50
2021/07/09 03:12:02;;;;;;;38.33;23.50;;;;;;;;;;5074256;28;20487;-50
2021/07/09 03:14:27;;;;;;;37.90;25.00;;;;;;;;;;5074057;28;20406;-50
2021/07/09 03:16:53;;;;;;;31.43;22.80;;;;;;;;;;5073971;28;20448;-51
2021/07/09 03:19:20;;;;;;;30.13;22.07;;;;;;;;;;5074580;28;20459;-51
2021/07/09 03:21:46;;;;;;;36.43;23.07;;;;;;;;;;5074229;28;20529;-51
2021/07/09 03:24:12;;;;;;;37.20;23.00;;;;;;;;;;5073753;28;20898;-51
2021/07/09 03:26:38;;;;;;;40.60;25.30;;;;;;;;;;5073977;28;20831;-51
2021/07/09 03:29:04;;;;;;;39.87;24.43;;;;;;;;;;5074309;28;20400;-50
2021/07/09 03:31:30;;;;;;;56.20;26.33;;;;;;;;;;5073914;28;20925;-49
2021/07/09 03:33:57;;;;;;;38.77;25.07;;;;;;;;;;5073590;28;20408;-51
2021/07/09 03:36:24;;;;;;;40.47;24.53;;;;;;;;;;5073821;28;20417;-51
2021/07/09 03:38:50;;;;;;;37.23;22.03;;;;;;;;;;5073795;28;20372;-51
2021/07/09 03:41:16;;;;;;;48.17;23.93;;;;;;;;;;5073829;28;20705;-50
2021/07/09 03:43:43;;;;;;;89.13;24.87;;;;;;;;;;5073313;28;20406;-51
2021/07/09 03:46:09;;;;;;;34.87;22.80;;;;;;;;;;5073611;28;20391;-51
2021/07/09 03:48:35;;;;;;;32.80;22.50;;;;;;;;;;5073861;28;20384;-51
2021/07/09 03:51:01;;;;;;;32.03;22.27;;;;;;;;;;5073486;28;20506;-51
2021/07/09 03:53:27;;;;;;;30.67;20.37;;;;;;;;;;5073509;28;20405;-51
2021/07/09 03:55:53;;;;;;;39.00;24.77;;;;;;;;;;5073210;28;20763;-51
2021/07/09 03:58:19;;;;;;;35.93;23.80;;;;;;;;;;5073313;28;20398;-51
2021/07/09 04:00:45;;;;;;;36.00;24.43;;;;;;;;;;5073401;28;20399;-50
2021/07/09 04:03:10;;;;;;;38.33;23.40;;;;;;;;;;5073181;28;20493;-51
2021/07/09 04:05:36;;;;;;;45.27;23.73;;;;;;;;;;5073101;28;20374;-51
2021/07/09 04:08:02;;;;;;;44.30;26.53;;;;;;;;;;5073484;28;20446;-50
2021/07/09 04:10:28;;;;;;;37.50;23.27;;;;;;;;;;5073276;28;20371;-52
2021/07/09 04:12:54;;;;;;;39.23;22.53;;;;;;;;;;5071836;28;20450;-51
2021/07/09 04:15:20;;;;;;;37.43;23.50;;;;;;;;;;5072863;28;20384;-51
2021/07/09 04:17:46;;;;;;;41.67;23.27;;;;;;;;;;5072976;28;21025;-50
2021/07/09 04:20:13;;;;;;;40.17;25.00;;;;;;;;;;5072981;28;20425;-51
2021/07/09 04:22:39;;;;;;;36.37;23.10;;;;;;;;;;5055089;28;20421;-50
2021/07/09 04:25:08;;;;;;;44.70;26.43;;;;;;;;;;5072680;28;20390;-50
2021/07/09 04:27:34;;;;;;;49.00;29.53;;;;;;;;;;5072804;28;20400;-51
2021/07/09 04:30:00;;;;;;;45.03;27.30;;;;;;;;;;5072911;28;20376;-51
2021/07/09 04:32:26;;;;;;;49.40;26.17;;;;;;;;;;5072825;28;20430;-51
2021/07/09 04:34:52;;;;;;;40.30;26.40;;;;;;;;;;5072722;28;20428;-51
2021/07/09 04:37:18;;;;;;;40.73;26.90;;;;;;;;;;5073178;28;20982;-51
2021/07/09 04:39:44;;;;;;;46.00;26.17;;;;;;;;;;5072823;28;20459;-51
2021/07/09 04:42:11;;;;;;;49.13;27.57;;;;;;;;;;5072996;28;20390;-51
2021/07/09 04:44:37;;;;;;;41.30;25.47;;;;;;;;;;5072564;28;20370;-50
2021/07/09 04:47:04;;;;;;;33.63;24.37;;;;;;;;;;5054951;28;20443;-50
2021/07/09 04:49:30;;;;;;;46.50;27.23;;;;;;;;;;5072569;28;20476;-52
2021/07/09 04:51:56;;;;;;;42.53;27.53;;;;;;;;;;5072454;28;20529;-50
2021/07/09 04:54:22;;;;;;;44.50;27.90;;;;;;;;;;5072568;28;20930;-50
2021/07/09 04:56:48;;;;;;;43.63;28.27;;;;;;;;;;5072251;28;20438;-51
2021/07/09 04:59:14;;;;;;;46.17;27.17;;;;;;;;;;5072330;28;20428;-50
2021/07/09 05:01:40;;;;;;;44.97;28.60;;;;;;;;;;5072404;28;20440;-51
2021/07/09 05:04:07;;;;;;;40.67;26.97;;;;;;;;;;5072000;28;20380;-51
2021/07/09 05:06:33;;;;;;;44.10;28.30;;;;;;;;;;5072199;28;20401;-51
2021/07/09 05:08:59;;;;;;;45.23;29.70;;;;;;;;;;5072182;28;20407;-52
2021/07/09 05:11:25;;;;;;;43.17;29.23;;;;;;;;;;5071964;28;20820;-51
2021/07/09 05:13:51;;;;;;;41.70;26.70;;;;;;;;;;5072057;28;20401;-51
2021/07/09 05:16:17;;;;;;;40.47;28.47;;;;;;;;;;5071645;28;20433;-52
2021/07/09 05:18:43;;;;;;;48.73;28.70;;;;;;;;;;5072028;28;20413;-51
2021/07/09 05:21:09;;;;;;;44.10;27.67;;;;;;;;;;5071786;28;20377;-51
2021/07/09 05:23:35;;;;;;;40.90;28.67;;;;;;;;;;5071297;28;20405;-51
2021/07/09 05:26:01;;;;;;;43.20;30.80;;;;;;;;;;5071350;28;20948;-51
2021/07/09 05:28:27;;;;;;;41.60;27.63;;;;;;;;;;5071981;28;20863;-51
2021/07/09 05:30:55;;;;;;;43.07;28.63;;;;;;;;;;5072415;28;20424;-51
2021/07/09 05:33:21;;;;;;;41.60;29.00;;;;;;;;;;5072576;28;20453;-51
2021/07/09 05:35:47;;;;;;;43.53;30.43;;;;;;;;;;5072059;28;20380;-51
2021/07/09 05:38:13;;;;;;;44.17;28.50;;;;;;;;;;5072234;28;20400;-51
2021/07/09 05:40:39;;;;;;;47.17;28.80;;;;;;;;;;5072057;28;20445;-51
2021/07/09 05:43:05;;;;;;;55.93;29.70;;;;;;;;;;5072670;28;20435;-51
2021/07/09 05:45:31;;;;;;;40.57;28.00;;;;;;;;;;5071840;28;20407;-51
2021/07/09 05:47:57;;;;;;;50.03;32.23;;;;;;;;;;5072046;28;20392;-52
2021/07/09 05:50:25;;;;;;;46.13;31.30;;;;;;;;;;5072276;28;20407;-52
2021/07/09 05:52:51;;;;;;;47.37;33.07;;;;;;;;;;5072091;28;20824;-51
2021/07/09 05:55:17;;;;;;;47.47;32.57;;;;;;;;;;5069617;28;20396;-51
2021/07/09 05:57:43;;;;;;;54.30;36.63;;;;;;;;;;5062518;28;20426;-51
2021/07/09 06:00:10;;;;;;;52.17;33.03;;;;;;;;;;5072096;28;20398;-51
2021/07/09 06:02:36;;;;;;;51.07;34.00;;;;;;;;;;5054564;28;20408;-51
2021/07/09 06:05:03;;;;;;;54.73;33.87;;;;;;;;;;5051964;28;20389;-51
2021/07/09 06:07:29;;;;;;;49.43;34.20;;;;;;;;;;5051714;28;20419;-52
2021/07/09 06:09:55;;;;;;;56.07;34.60;;;;;;;;;;5051997;28;21111;-51
2021/07/09 06:12:21;;;;;;;48.13;33.10;;;;;;;;;;5051751;28;20460;-52
2021/07/09 06:14:47;;;;;;;55.17;37.80;;;;;;;;;;5068859;28;20377;-52
2021/07/09 06:17:13;;;;;;;48.20;34.80;;;;;;;;;;5071455;28;20438;-52
2021/07/09 06:19:39;;;;;;;49.70;34.33;;;;;;;;;;5071966;28;20890;-51
2021/07/09 06:22:05;;;;;;;50.53;36.20;;;;;;;;;;5071620;28;20408;-51
2021/07/09 06:24:31;;;;;;;63.93;41.33;;;;;;;;;;5071731;28;20375;-51
2021/07/09 06:26:57;;;;;;;68.30;44.70;;;;;;;;;;5071532;28;20511;-51
2021/07/09 06:29:23;;;;;;;80.70;52.00;;;;;;;;;;5071675;28;20818;-51
2021/07/09 06:31:49;;;;;;;76.93;49.13;;;;;;;;;;5071132;28;20498;-52
2021/07/09 06:34:15;;;;;;;80.80;50.97;;;;;;;;;;5071036;28;20432;-52
2021/07/09 06:36:41;;;;;;;78.60;51.90;;;;;;;;;;5070268;28;20452;-52
2021/07/09 06:39:07;;;;;;;68.30;46.80;;;;;;;;;;5071345;28;20379;-52
2021/07/09 06:41:33;;;;;;;53.47;41.10;;;;;;;;;;5071171;28;20408;-51
2021/07/09 06:44:00;;;;;;;67.87;48.53;;;;;;;;;;5070966;28;20407;-51
2021/07/09 06:46:26;;;;;;;73.93;46.43;;;;;;;;;;5070885;28;20944;-51
2021/07/09 06:48:52;;;;;;;76.90;51.23;;;;;;;;;;5071145;28;20919;-51
2021/07/09 06:51:18;;;;;;;75.77;47.70;;;;;;;;;;5053177;28;20481;-52
2021/07/09 06:53:44;;;;;;;72.47;49.57;;;;;;;;;;5050721;28;20376;-51
2021/07/09 06:56:10;;;;;;;82.17;52.13;;;;;;;;;;5050761;28;20957;-51
2021/07/09 06:58:36;;;;;;;77.97;51.30;;;;;;;;;;5050801;28;20463;-52
2021/07/09 07:01:02;;;;;;;72.27;47.80;;;;;;;;;;5050803;28;20399;-52
2021/07/09 07:03:28;;;;;;;74.27;48.80;;;;;;;;;;5050719;28;20403;-52
2021/07/09 07:05:54;;;;;;;80.70;53.03;;;;;;;;;;5050577;28;20436;-52
2021/07/09 07:08:23;;;;;;;81.87;54.27;;;;;;;;;;5050708;28;20987;-52
2021/07/09 07:10:51;;;;;;;73.67;50.67;;;;;;;;;;5050942;28;20459;-52
2021/07/09 07:13:17;;;;;;;77.50;48.00;;;;;;;;;;5050610;28;20432;-52
2021/07/09 07:15:43;;;;;;;69.00;47.83;;;;;;;;;;5050311;28;20401;-52
2021/07/09 07:18:09;;;;;;;72.83;49.83;;;;;;;;;;5050298;28;20465;-52
2021/07/09 07:20:36;;;;;;;73.83;49.10;;;;;;;;;;5050806;28;20401;-52
2021/07/09 07:23:02;;;;;;;66.93;45.33;;;;;;;;;;5050809;28;20414;-52
2021/07/09 07:25:28;;;;;;;70.43;48.00;;;;;;;;;;5050434;28;20397;-52
2021/07/09 07:27:54;;;;;;;66.67;46.73;;;;;;;;;;5050335;28;20800;-52
2021/07/09 07:30:20;;;;;;;70.57;46.47;;;;;;;;;;5050659;28;20818;-52
2021/07/09 07:32:48;;;;;;;64.97;45.93;;;;;;;;;;5050184;28;20867;-52
2021/07/09 07:35:14;;;;;;;75.30;47.20;;;;;;;;;;5050126;28;20789;-52
2021/07/09 07:37:40;;;;;;;63.37;43.60;;;;;;;;;;5050171;28;20396;-52
2021/07/09 07:40:06;;;;;;;60.40;44.30;;;;;;;;;;5050456;28;20401;-51
2021/07/09 07:42:32;;;;;;;65.60;46.67;;;;;;;;;;5050168;28;20901;-52
2021/07/09 07:44:58;;;;;;;50.30;41.00;;;;;;;;;;5050112;28;20455;-52
2021/07/09 07:47:24;;;;;;;49.27;38.70;;;;;;;;;;5051819;28;20422;-52
2021/07/09 07:49:50;;;;;;;55.90;38.93;;;;;;;;;;5059275;28;20484;-52
2021/07/09 07:52:16;;;;;;;49.27;38.87;;;;;;;;;;5074030;28;21031;-52
2021/07/09 07:54:42;;;;;;;50.63;38.57;;;;;;;;;;5062566;28;20474;-52
2021/07/09 07:57:08;;;;;;;46.50;36.93;;;;;;;;;;5065307;28;20978;-52
2021/07/09 07:59:34;;;;;;;50.70;37.13;;;;;;;;;;5058440;28;20376;-52
2021/07/09 08:02:00;;;;;;;42.40;34.70;;;;;;;;;;5056583;28;20406;-52
2021/07/09 08:04:26;;;;;;;42.13;34.67;;;;;;;;;;5073759;28;20403;-52
2021/07/09 08:06:52;;;;;;;39.67;32.70;;;;;;;;;;5073967;28;20805;-52
2021/07/09 08:09:18;;;;;;;38.53;32.03;;;;;;;;;;5073774;28;20402;-51
2021/07/09 08:11:44;;;;;;;42.77;30.37;;;;;;;;;;5073802;28;20511;-52
2021/07/09 08:14:10;;;;;;;34.07;29.50;;;;;;;;;;5071315;28;20402;-52
2021/07/09 08:16:36;;;;;;;36.17;30.27;;;;;;;;;;5053721;28;20473;-51
2021/07/09 08:19:02;;;;;;;37.33;30.60;;;;;;;;;;5053838;28;20405;-52
2021/07/09 08:21:28;;;;;;;36.43;32.17;;;;;;;;;;5053885;28;20408;-52
2021/07/09 08:23:54;;;;;;;37.07;28.00;;;;;;;;;;5053378;28;20406;-52
2021/07/09 08:26:21;;;;;;;32.33;27.87;;;;;;;;;;5053573;28;20428;-52
2021/07/09 08:28:47;;;;;;;31.03;25.97;;;;;;;;;;5053427;28;20444;-52
2021/07/09 08:31:12;;;;;;;31.90;23.97;;;;;;;;;;5053696;28;20483;-52
2021/07/09 08:33:39;;;;;;;28.23;24.57;;;;;;;;;;5053618;28;20398;-52
2021/07/09 08:36:05;;;;;;;28.53;22.40;;;;;;;;;;5053771;28;20459;-52
2021/07/09 08:38:31;;;;;;;29.77;22.73;;;;;;;;;;5053625;28;20401;-52
2021/07/09 08:40:57;;;;;;;28.87;21.73;;;;;;;;;;5067585;28;20425;-52
2021/07/09 08:43:23;;;;;;;22.47;19.80;;;;;;;;;;5073554;28;20743;-52
2021/07/09 08:45:49;;;;;;;22.03;18.57;;;;;;;;;;5072746;28;20396;-52
2021/07/09 08:48:16;;;;;;;23.10;19.80;;;;;;;;;;5072967;28;20413;-52
2021/07/09 08:50:42;;;;;;;22.97;20.67;;;;;;;;;;5072667;28;20407;-52
2021/07/09 08:53:08;;;;;;;24.60;21.10;;;;;;;;;;5072811;28;20397;-52
2021/07/09 08:55:34;;;;;;;22.43;20.00;;;;;;;;;;5072606;28;20478;-52
2021/07/09 08:58:00;;;;;;;22.97;18.87;;;;;;;;;;5072849;28;20940;-52
2021/07/09 09:00:26;;;;;;;23.03;17.53;;;;;;;;;;5071735;28;20543;-52
2021/07/09 09:02:53;;;;;;;19.03;16.63;;;;;;;;;;5072751;28;20442;-52
2021/07/09 09:05:19;;;;;;;19.13;17.07;;;;;;;;;;5072418;28;20419;-52
2021/07/09 09:07:48;;;;;;;18.70;16.43;;;;;;;;;;5073040;28;20937;-52
2021/07/09 09:10:14;;;;;;;19.00;16.90;;;;;;;;;;5073681;28;20756;-52
2021/07/09 09:12:46;;;;;;;15.50;14.00;;;;;;;;;;5072559;28;20463;-53
2021/07/09 09:15:11;;;;;;;17.60;13.83;;;;;;;;;;5072583;28;20404;-52
2021/07/09 09:17:38;;;;;;;16.77;13.67;;;;;;;;;;5072487;28;20501;-52
2021/07/09 09:20:11;;;;;;;14.50;12.73;;;;;;;;;;5072664;28;20890;-52
2021/07/09 09:22:57;;;;;;;17.33;14.90;;;;;;;;;;5072620;28;20412;-52
2021/07/09 09:25:25;;;;;;;15.03;13.50;;;;;;;;;;5071904;28;20412;-52
2021/07/09 09:27:57;;;;;;;15.57;14.07;;;;;;;;;;5071930;28;20519;-53
2021/07/09 09:30:23;;;;;;;16.27;14.57;;;;;;;;;;5072069;28;20443;-53
2021/07/09 09:32:50;;;;;;;16.43;14.93;;;;;;;;;;5071772;28;20914;-54
2021/07/09 09:35:22;;;;;;;21.07;13.27;;;;;;;;;;5072005;28;20416;-53
2021/07/09 09:37:53;;;;;;;15.97;13.17;;;;;;;;;;5071737;28;20420;-52
2021/07/09 09:40:20;;;;;;;14.70;12.80;;;;;;;;;;5071778;28;20479;-53
2021/07/09 09:42:46;;;;;;;15.80;14.23;;;;;;;;;;5071413;28;20401;-53
2021/07/09 09:45:12;;;;;;;13.20;12.00;;;;;;;;;;5071520;28;20458;-53
2021/07/09 09:47:38;;;;;;;13.33;12.17;;;;;;;;;;5071398;28;20456;-52
2021/07/09 09:50:06;;;;;;;12.30;11.03;;;;;;;;;;5071674;28;20396;-53
2021/07/09 09:52:33;;;;;;;12.67;10.83;;;;;;;;;;5053793;28;20555;-52
2021/07/09 09:55:00;;;;;;;11.93;10.73;;;;;;;;;;5051513;28;20459;-53
2021/07/09 09:57:26;;;;;;;13.00;10.83;;;;;;;;;;5051541;28;20417;-52
2021/07/09 09:59:52;;;;;;;13.97;12.73;;;;;;;;;;5051422;28;20450;-52
2021/07/09 10:02:21;;;;;;;14.40;13.13;;;;;;;;;;5051495;28;20492;-52
2021/07/09 10:04:47;;;;;;;13.23;11.93;;;;;;;;;;5066134;28;20466;-52
2021/07/09 10:07:14;;;;;;;13.33;10.87;;;;;;;;;;5070791;28;20929;-52
2021/07/09 10:09:40;;;;;;;14.07;12.90;;;;;;;;;;5071096;28;20411;-52
2021/07/09 10:12:06;;;;;;;10.90;10.00;;;;;;;;;;5071192;28;20538;-52
2021/07/09 10:14:33;;;;;;;12.80;11.70;;;;;;;;;;5070800;28;20828;-52
2021/07/09 10:17:00;;;;;;;11.27;10.20;;;;;;;;;;5070543;28;20440;-52
2021/07/09 10:19:35;;;;;;;9.93;9.13;;;;;;;;;;5070684;28;20408;-51
2021/07/09 10:22:01;;;;;;;9.83;8.83;;;;;;;;;;5071253;28;20404;-52
2021/07/09 10:24:28;;;;;;;10.80;7.80;;;;;;;;;;5070656;28;21160;-52
2021/07/09 10:26:55;;;;;;;9.27;8.37;;;;;;;;;;5070793;28;20424;-52
2021/07/09 10:29:23;;;;;;;9.60;8.70;;;;;;;;;;5070709;28;20415;-52
2021/07/09 10:31:51;;;;;;;8.93;8.23;;;;;;;;;;5070494;28;20501;-51
2021/07/09 10:34:27;;;;;;;10.63;8.57;;;;;;;;;;5070284;28;20400;-52
2021/07/09 10:36:59;;;;;;;10.53;9.63;;;;;;;;;;5070737;28;20416;-51
2021/07/09 10:39:35;;;;;;;10.30;9.30;;;;;;;;;;5071085;28;20396;-51
2021/07/09 10:42:14;;;;;;;9.37;8.47;;;;;;;;;;5071044;28;20396;-52
2021/07/09 10:44:55;;;;;;;8.83;7.67;;;;;;;;;;5069950;28;20407;-52
2021/07/09 10:47:21;;;;;;;9.20;7.50;;;;;;;;;;5070239;28;20424;-52
2021/07/09 10:49:50;;;;;;;15.60;7.30;;;;;;;;;;5070845;28;20943;-53
2021/07/09 10:52:35;;;;;;;7.93;7.13;;;;;;;;;;5070578;28;20448;-50
2021/07/09 10:55:01;;;;;;;10.30;8.83;;;;;;;;;;5070309;28;20403;-53
2021/07/09 10:57:27;;;;;;;6.67;6.20;;;;;;;;;;5070296;28;20439;-54
2021/07/09 11:00:11;;;;;;;9.87;6.07;;;;;;;;;;5071044;28;20169;-53
2021/07/09 11:02:56;;;;;;;6.93;6.43;;;;;;;;;;5052254;28;20439;-52
2021/07/09 11:05:41;;;;;;;6.70;6.30;;;;;;;;;;5070095;28;20673;-52
2021/07/09 11:08:25;;;;;;;7.93;7.27;;;;;;;;;;5068541;28;20936;-52
2021/07/09 11:10:58;;;;;;;7.80;7.10;;;;;;;;;;5050532;28;20491;-52
2021/07/09 11:13:42;;;;;;;7.27;6.63;;;;;;;;;;5050194;28;20397;-52
2021/07/09 11:16:27;;;;;;;7.10;6.40;;;;;;;;;;5050034;28;20458;-53
2021/07/09 11:19:07;;;;;;;7.27;6.60;;;;;;;;;;5050486;28;20468;-52
2021/07/09 11:21:33;;;;;;;6.30;5.70;;;;;;;;;;5050608;28;20446;-52
2021/07/09 11:24:02;;;;;;;5.83;5.33;;;;;;;;;;5054176;28;20458;-52
2021/07/09 11:26:29;;;;;;;7.57;6.60;;;;;;;;;;5054671;28;20428;-52
2021/07/09 11:28:58;;;;;;;6.33;5.83;;;;;;;;;;5053891;28;20870;-52
2021/07/09 11:31:31;;;;;;;7.17;6.47;;;;;;;;;;5053491;28;20534;-52
2021/07/09 11:34:04;;;;;;;7.10;5.93;;;;;;;;;;5053783;28;20405;-53
2021/07/09 11:36:40;;;;;;;8.07;7.13;;;;;;;;;;5053933;28;20416;-51
2021/07/09 11:39:07;;;;;;;7.67;6.60;;;;;;;;;;5053953;28;20405;-51
2021/07/09 11:41:34;;;;;;;6.53;5.83;;;;;;;;;;5054431;28;20398;-53
2021/07/09 11:44:00;;;;;;;5.93;4.90;;;;;;;;;;5053398;28;20397;-52
2021/07/09 11:46:27;;;;;;;5.53;4.97;;;;;;;;;;5053783;28;20461;-53
2021/07/09 11:48:53;;;;;;;4.80;4.30;;;;;;;;;;5053631;28;20894;-52
2021/07/09 11:51:19;;;;;;;5.07;4.47;;;;;;;;;;5060892;28;20448;-53
2021/07/09 11:54:03;;;;;;;4.87;4.50;;;;;;;;;;5073427;28;20943;-52
2021/07/09 11:56:37;;;;;;;5.73;5.27;;;;;;;;;;5073524;28;20806;-53
2021/07/09 11:59:13;;;;;;;7.00;6.00;;;;;;;;;;5073448;28;20400;-52
2021/07/09 12:01:39;;;;;;;5.90;5.40;;;;;;;;;;5073369;28;20404;-51
2021/07/09 12:04:05;;;;;;;5.90;5.40;;;;;;;;;;5073130;28;20496;-52
2021/07/09 12:06:31;;;;;;;5.97;5.47;;;;;;;;;;5073378;28;20430;-52
2021/07/09 12:08:58;;;;;;;6.00;5.60;;;;;;;;;;5073388;28;20398;-53
2021/07/09 12:11:23;;;;;;;7.43;5.10;;;;;;;;;;5073274;28;20519;-51
2021/07/09 12:14:06;;;;;;;5.60;5.03;;;;;;;;;;5072996;28;20796;-52
2021/07/09 12:16:32;;;;;;;5.77;5.20;;;;;;;;;;5073131;28;20434;-50
2021/07/09 12:18:58;;;;;;;6.00;4.63;;;;;;;;;;5073443;28;20929;-52
2021/07/09 12:21:25;;;;;;;4.93;4.50;;;;;;;;;;5071736;28;20776;-52
2021/07/09 12:24:01;;;;;;;4.67;4.37;;;;;;;;;;5060654;28;20409;-52
2021/07/09 12:26:27;;;;;;;8.03;4.87;;;;;;;;;;5072744;28;20428;-52
2021/07/09 12:28:53;;;;;;;4.60;4.20;;;;;;;;;;5060458;28;20409;-52
2021/07/09 12:31:19;;;;;;;7.83;4.83;;;;;;;;;;5056715;28;20536;-52
2021/07/09 12:33:50;;;;;;;5.17;4.67;;;;;;;;;;5064192;28;20413;-52
2021/07/09 12:36:26;;;;;;;5.07;4.50;;;;;;;;;;5073019;28;20423;-55
2021/07/09 12:38:57;;;;;;;5.30;4.90;;;;;;;;;;5058164;28;20410;-53
2021/07/09 12:41:31;;;;;;;11.10;5.63;;;;;;;;;;5067294;28;20423;-53
2021/07/09 12:43:57;;;;;;;5.83;5.20;;;;;;;;;;5053168;28;20461;-53
2021/07/09 12:46:27;;;;;;;6.13;4.70;;;;;;;;;;5071702;28;20425;-54
2021/07/09 12:48:59;;;;;;;5.37;4.80;;;;;;;;;;5059793;28;20811;-54
2021/07/09 12:51:25;;;;;;;5.50;5.00;;;;;;;;;;5072476;28;20457;-53
2021/07/09 12:54:05;;;;;;;8.33;5.60;;;;;;;;;;5072455;28;20398;-53
2021/07/09 12:56:42;;;;;;;5.67;5.17;;;;;;;;;;5072405;28;20423;-53
2021/07/09 12:59:08;;;;;;;4.90;4.50;;;;;;;;;;5072549;28;20408;-53
2021/07/09 13:01:35;;;;;;;5.90;5.40;;;;;;;;;;5072542;28;20927;-53
2021/07/09 13:04:01;;;;;;;5.70;5.30;;;;;;;;;;5072009;28;20412;-53
2021/07/09 13:06:28;;;;;;;5.80;4.83;;;;;;;;;;5072261;28;20425;-52
2021/07/09 13:09:08;;;;;;;5.30;5.00;;;;;;;;;;5072236;28;20404;-53
2021/07/09 13:11:39;;;;;;;5.00;4.60;;;;;;;;;;5071219;28;20480;-53
2021/07/09 13:14:05;;;;;;;5.70;5.30;;;;;;;;;;5067169;28;20424;-53
2021/07/09 13:16:44;;;;;;;5.77;4.57;;;;;;;;;;5071841;28;20438;-52
2021/07/09 13:19:10;;;;;;;4.83;4.10;;;;;;;;;;5071967;28;20405;-53
2021/07/09 13:21:46;;;;;;;9.10;4.43;;;;;;;;;;5072000;28;20477;-52
2021/07/09 13:24:12;;;;;;;4.40;4.00;;;;;;;;;;5071541;28;20486;-53
2021/07/09 13:26:39;;;;;;;4.57;4.27;;;;;;;;;;5071809;28;20987;-52
2021/07/09 13:29:15;;;;;;;5.23;4.10;;;;;;;;;;5071590;28;20407;-53
2021/07/09 13:31:42;;;;;;;4.27;3.90;;;;;;;;;;5071959;28;20469;-53
2021/07/09 13:34:08;;;;;;;4.77;4.47;;;;;;;;;;5071396;28;21187;-54
2021/07/09 13:36:38;;;;;;;4.90;4.13;;;;;;;;;;5071696;28;20425;-54
2021/07/09 13:39:04;;;;;;;4.50;4.10;;;;;;;;;;5071656;28;20411;-52
2021/07/09 13:41:30;;;;;;;4.33;4.03;;;;;;;;;;5071341;28;20427;-53
2021/07/09 13:43:57;;;;;;;3.60;3.40;;;;;;;;;;5071308;28;20930;-52
2021/07/09 13:46:23;;;;;;;4.73;4.20;;;;;;;;;;5071018;28;20436;-53
2021/07/09 13:48:49;;;;;;;3.17;2.97;;;;;;;;;;5071482;28;20483;-54
2021/07/09 13:51:15;;;;;;;3.50;3.20;;;;;;;;;;5071193;28;20566;-55
2021/07/09 13:53:42;;;;;;;5.00;3.10;;;;;;;;;;5071213;28;20404;-53
2021/07/09 13:56:08;;;;;;;3.23;2.93;;;;;;;;;;5053549;28;20412;-54
2021/07/09 13:58:34;;;;;;;3.10;2.90;;;;;;;;;;5071229;28;20491;-53
2021/07/09 14:01:01;;;;;;;3.10;2.90;;;;;;;;;;5071116;28;20495;-53
2021/07/09 14:03:27;;;;;;;4.20;3.80;;;;;;;;;;5071289;28;20392;-52
2021/07/09 14:05:54;;;;;;;4.80;3.27;;;;;;;;;;5052994;28;20447;-51
2021/07/09 14:08:21;;;;;;;4.83;3.80;;;;;;;;;;5071062;28;20492;-51
2021/07/09 14:10:49;;;;;;;5.80;3.60;;;;;;;;;;5070906;28;20406;-54
2021/07/09 14:13:16;;;;;;;4.20;3.77;;;;;;;;;;5071034;28;20456;-54
2021/07/09 14:15:42;;;;;;;3.97;3.53;;;;;;;;;;5070991;28;20424;-51
2021/07/09 14:18:08;;;;;;;4.87;3.53;;;;;;;;;;5071085;28;20436;-50
2021/07/09 14:20:34;;;;;;;5.13;4.67;;;;;;;;;;5070704;28;20427;-50
2021/07/09 14:23:00;;;;;;;7.70;5.10;;;;;;;;;;5070774;28;20401;-51
2021/07/09 14:25:26;;;;;;;8.37;7.60;;;;;;;;;;5065307;28;20413;-51